sensor_id;sensor_type;location;lat;lon;timestamp;P1;durP1;ratioP1;P2;durP2;ratioP2
12650;SDS011;6390;49.400;8.670;2023-07-08T00:00:51;3.95;;;3.15;;
12650;SDS011;6390;49.400;8.670;2023-07-08T00:03:18;4.13;;;3.33;;
12650;SDS011;6390;49.400;8.670;2023-07-08T00:05:45;4.63;;;3.28;;
12650;SDS011;6390;49.400;8.670;2023-07-08T00:08:13;5.32;;;3.78;;
12650;SDS011;6390;49.400;8.670;2023-07-08T00:10:40;3.42;;;3.13;;
12650;SDS011;6390;49.400;8.670;2023-07-08T00:13:07;3.63;;;3.30;;
12650;SDS011;6390;49.400;8.670;2023-07-08T00:15:34;3.90;;;3.40;;
12650;SDS011;6390;49.400;8.670;2023-07-08T00:18:03;3.88;;;3.30;;
12650;SDS011;6390;49.400;8.670;2023-07-08T00:20:43;5.22;;;3.97;;
12650;SDS011;6390;49.400;8.670;2023-07-08T00:23:11;4.85;;;3.72;;
12650;SDS011;6390;49.400;8.670;2023-07-08T00:25:38;3.97;;;3.58;;
12650;SDS011;6390;49.400;8.670;2023-07-08T00:28:07;4.15;;;3.75;;
12650;SDS011;6390;49.400;8.670;2023-07-08T00:30:36;5.25;;;3.88;;
12650;SDS011;6390;49.400;8.670;2023-07-08T00:33:02;3.92;;;3.53;;
12650;SDS011;6390;49.400;8.670;2023-07-08T00:37:58;4.18;;;3.65;;
12650;SDS011;6390;49.400;8.670;2023-07-08T00:40:30;4.53;;;4.05;;
12650;SDS011;6390;49.400;8.670;2023-07-08T00:42:59;4.38;;;3.63;;
12650;SDS011;6390;49.400;8.670;2023-07-08T00:48:19;4.25;;;3.85;;
12650;SDS011;6390;49.400;8.670;2023-07-08T00:50:56;5.55;;;3.83;;
12650;SDS011;6390;49.400;8.670;2023-07-08T00:53:27;4.53;;;4.03;;
12650;SDS011;6390;49.400;8.670;2023-07-08T00:56:20;3.95;;;3.55;;
12650;SDS011;6390;49.400;8.670;2023-07-08T00:58:56;4.65;;;3.38;;
12650;SDS011;6390;49.400;8.670;2023-07-08T01:01:26;5.30;;;3.65;;
12650;SDS011;6390;49.400;8.670;2023-07-08T01:03:54;5.43;;;3.83;;
12650;SDS011;6390;49.400;8.670;2023-07-08T01:06:26;4.82;;;3.95;;
12650;SDS011;6390;49.400;8.670;2023-07-08T01:08:56;6.57;;;3.85;;
12650;SDS011;6390;49.400;8.670;2023-07-08T01:11:27;6.80;;;4.05;;
12650;SDS011;6390;49.400;8.670;2023-07-08T01:13:54;6.60;;;4.28;;
12650;SDS011;6390;49.400;8.670;2023-07-08T01:16:21;6.78;;;4.05;;
12650;SDS011;6390;49.400;8.670;2023-07-08T01:18:48;8.98;;;4.05;;
12650;SDS011;6390;49.400;8.670;2023-07-08T01:24:29;4.85;;;3.88;;
12650;SDS011;6390;49.400;8.670;2023-07-08T01:26:57;4.82;;;3.45;;
12650;SDS011;6390;49.400;8.670;2023-07-08T01:29:25;5.07;;;4.05;;
12650;SDS011;6390;49.400;8.670;2023-07-08T01:31:51;5.22;;;4.20;;
12650;SDS011;6390;49.400;8.670;2023-07-08T01:34:19;4.68;;;3.80;;
12650;SDS011;6390;49.400;8.670;2023-07-08T01:36:47;4.40;;;3.60;;
12650;SDS011;6390;49.400;8.670;2023-07-08T01:39:17;4.68;;;3.65;;
12650;SDS011;6390;49.400;8.670;2023-07-08T01:41:45;4.72;;;3.65;;
12650;SDS011;6390;49.400;8.670;2023-07-08T01:44:31;4.65;;;3.60;;
12650;SDS011;6390;49.400;8.670;2023-07-08T01:47:00;4.55;;;3.75;;
12650;SDS011;6390;49.400;8.670;2023-07-08T01:49:38;5.38;;;4.05;;
12650;SDS011;6390;49.400;8.670;2023-07-08T01:52:06;4.90;;;4.03;;
12650;SDS011;6390;49.400;8.670;2023-07-08T01:54:32;4.97;;;3.95;;
12650;SDS011;6390;49.400;8.670;2023-07-08T01:56:59;5.55;;;4.50;;
12650;SDS011;6390;49.400;8.670;2023-07-08T01:59:26;4.80;;;4.03;;
12650;SDS011;6390;49.400;8.670;2023-07-08T02:01:52;5.15;;;4.30;;
12650;SDS011;6390;49.400;8.670;2023-07-08T02:04:22;4.85;;;4.03;;
12650;SDS011;6390;49.400;8.670;2023-07-08T02:06:50;5.45;;;4.18;;
12650;SDS011;6390;49.400;8.670;2023-07-08T02:09:21;6.20;;;4.10;;
12650;SDS011;6390;49.400;8.670;2023-07-08T02:11:48;5.85;;;4.03;;
12650;SDS011;6390;49.400;8.670;2023-07-08T02:14:14;4.97;;;4.22;;
12650;SDS011;6390;49.400;8.670;2023-07-08T02:16:40;5.47;;;4.28;;
12650;SDS011;6390;49.400;8.670;2023-07-08T02:19:06;5.45;;;3.83;;
12650;SDS011;6390;49.400;8.670;2023-07-08T02:21:32;5.97;;;4.60;;
12650;SDS011;6390;49.400;8.670;2023-07-08T02:23:58;5.45;;;4.15;;
12650;SDS011;6390;49.400;8.670;2023-07-08T02:26:26;5.88;;;4.25;;
12650;SDS011;6390;49.400;8.670;2023-07-08T02:28:52;8.23;;;4.40;;
12650;SDS011;6390;49.400;8.670;2023-07-08T02:31:18;5.93;;;4.72;;
12650;SDS011;6390;49.400;8.670;2023-07-08T02:33:46;8.57;;;4.15;;
12650;SDS011;6390;49.400;8.670;2023-07-08T02:36:12;5.18;;;4.20;;
12650;SDS011;6390;49.400;8.670;2023-07-08T02:38:38;5.22;;;4.30;;
12650;SDS011;6390;49.400;8.670;2023-07-08T02:41:04;5.75;;;4.70;;
12650;SDS011;6390;49.400;8.670;2023-07-08T02:43:30;7.32;;;4.40;;
12650;SDS011;6390;49.400;8.670;2023-07-08T02:45:56;9.20;;;4.53;;
12650;SDS011;6390;49.400;8.670;2023-07-08T02:48:22;5.80;;;4.43;;
12650;SDS011;6390;49.400;8.670;2023-07-08T02:50:48;7.55;;;4.13;;
12650;SDS011;6390;49.400;8.670;2023-07-08T02:53:14;6.20;;;4.25;;
12650;SDS011;6390;49.400;8.670;2023-07-08T02:55:40;4.85;;;4.03;;
12650;SDS011;6390;49.400;8.670;2023-07-08T02:58:08;4.97;;;3.97;;
12650;SDS011;6390;49.400;8.670;2023-07-08T03:00:35;5.40;;;4.28;;
12650;SDS011;6390;49.400;8.670;2023-07-08T03:03:02;6.40;;;4.20;;
12650;SDS011;6390;49.400;8.670;2023-07-08T03:05:29;6.30;;;4.13;;
12650;SDS011;6390;49.400;8.670;2023-07-08T03:07:56;6.45;;;4.72;;
12650;SDS011;6390;49.400;8.670;2023-07-08T03:10:22;5.32;;;4.10;;
12650;SDS011;6390;49.400;8.670;2023-07-08T03:12:48;7.30;;;4.55;;
12650;SDS011;6390;49.400;8.670;2023-07-08T03:15:14;9.18;;;4.63;;
12650;SDS011;6390;49.400;8.670;2023-07-08T03:17:40;8.45;;;4.50;;
12650;SDS011;6390;49.400;8.670;2023-07-08T03:20:07;9.15;;;4.10;;
12650;SDS011;6390;49.400;8.670;2023-07-08T03:22:35;11.10;;;4.38;;
12650;SDS011;6390;49.400;8.670;2023-07-08T03:25:01;11.23;;;4.22;;
12650;SDS011;6390;49.400;8.670;2023-07-08T03:27:28;6.18;;;4.10;;
12650;SDS011;6390;49.400;8.670;2023-07-08T03:29:54;7.10;;;4.40;;
12650;SDS011;6390;49.400;8.670;2023-07-08T03:32:20;5.95;;;4.35;;
12650;SDS011;6390;49.400;8.670;2023-07-08T03:34:46;8.40;;;4.35;;
12650;SDS011;6390;49.400;8.670;2023-07-08T03:37:12;6.00;;;4.15;;
12650;SDS011;6390;49.400;8.670;2023-07-08T03:39:39;6.00;;;4.10;;
12650;SDS011;6390;49.400;8.670;2023-07-08T03:42:05;5.55;;;4.05;;
12650;SDS011;6390;49.400;8.670;2023-07-08T03:44:31;5.57;;;4.47;;
12650;SDS011;6390;49.400;8.670;2023-07-08T03:46:57;5.50;;;4.28;;
12650;SDS011;6390;49.400;8.670;2023-07-08T03:49:23;5.45;;;4.60;;
12650;SDS011;6390;49.400;8.670;2023-07-08T03:51:51;6.18;;;4.80;;
12650;SDS011;6390;49.400;8.670;2023-07-08T03:54:19;5.03;;;4.30;;
12650;SDS011;6390;49.400;8.670;2023-07-08T03:56:47;7.47;;;4.47;;
12650;SDS011;6390;49.400;8.670;2023-07-08T03:59:13;6.70;;;4.43;;
12650;SDS011;6390;49.400;8.670;2023-07-08T04:01:40;6.85;;;4.28;;
12650;SDS011;6390;49.400;8.670;2023-07-08T04:04:13;6.25;;;4.80;;
12650;SDS011;6390;49.400;8.670;2023-07-08T04:06:40;4.82;;;4.20;;
12650;SDS011;6390;49.400;8.670;2023-07-08T04:09:07;5.13;;;4.28;;
12650;SDS011;6390;49.400;8.670;2023-07-08T04:11:33;9.35;;;7.10;;
12650;SDS011;6390;49.400;8.670;2023-07-08T04:13:59;7.10;;;5.72;;
12650;SDS011;6390;49.400;8.670;2023-07-08T04:16:27;5.80;;;4.53;;
12650;SDS011;6390;49.400;8.670;2023-07-08T04:19:01;5.97;;;4.55;;
12650;SDS011;6390;49.400;8.670;2023-07-08T04:21:27;5.05;;;4.20;;
12650;SDS011;6390;49.400;8.670;2023-07-08T04:23:55;4.68;;;3.80;;
12650;SDS011;6390;49.400;8.670;2023-07-08T04:26:21;4.97;;;4.07;;
12650;SDS011;6390;49.400;8.670;2023-07-08T04:28:47;7.20;;;4.88;;
12650;SDS011;6390;49.400;8.670;2023-07-08T04:31:13;5.68;;;4.50;;
12650;SDS011;6390;49.400;8.670;2023-07-08T04:33:39;5.35;;;4.28;;
12650;SDS011;6390;49.400;8.670;2023-07-08T04:36:09;5.22;;;4.28;;
12650;SDS011;6390;49.400;8.670;2023-07-08T04:38:38;6.13;;;4.82;;
12650;SDS011;6390;49.400;8.670;2023-07-08T04:41:06;5.70;;;3.92;;
12650;SDS011;6390;49.400;8.670;2023-07-08T04:43:32;4.82;;;3.92;;
12650;SDS011;6390;49.400;8.670;2023-07-08T04:45:58;5.25;;;4.15;;
12650;SDS011;6390;49.400;8.670;2023-07-08T04:48:24;5.47;;;4.10;;
12650;SDS011;6390;49.400;8.670;2023-07-08T04:50:51;5.88;;;4.15;;
12650;SDS011;6390;49.400;8.670;2023-07-08T04:53:17;5.35;;;4.43;;
12650;SDS011;6390;49.400;8.670;2023-07-08T04:55:54;5.40;;;4.43;;
12650;SDS011;6390;49.400;8.670;2023-07-08T04:58:21;5.35;;;4.55;;
12650;SDS011;6390;49.400;8.670;2023-07-08T05:00:47;4.85;;;4.28;;
12650;SDS011;6390;49.400;8.670;2023-07-08T05:03:14;5.25;;;4.20;;
12650;SDS011;6390;49.400;8.670;2023-07-08T05:05:40;5.65;;;4.22;;
12650;SDS011;6390;49.400;8.670;2023-07-08T05:08:06;5.80;;;4.50;;
12650;SDS011;6390;49.400;8.670;2023-07-08T05:10:33;5.97;;;4.78;;
12650;SDS011;6390;49.400;8.670;2023-07-08T05:12:59;5.65;;;4.47;;
12650;SDS011;6390;49.400;8.670;2023-07-08T05:15:26;4.55;;;4.07;;
12650;SDS011;6390;49.400;8.670;2023-07-08T05:17:52;4.80;;;4.10;;
12650;SDS011;6390;49.400;8.670;2023-07-08T05:20:18;4.95;;;4.15;;
12650;SDS011;6390;49.400;8.670;2023-07-08T05:22:45;5.30;;;4.15;;
12650;SDS011;6390;49.400;8.670;2023-07-08T05:25:12;4.90;;;3.97;;
12650;SDS011;6390;49.400;8.670;2023-07-08T05:27:39;4.63;;;3.80;;
12650;SDS011;6390;49.400;8.670;2023-07-08T05:30:06;4.55;;;4.07;;
12650;SDS011;6390;49.400;8.670;2023-07-08T05:32:33;5.70;;;4.40;;
12650;SDS011;6390;49.400;8.670;2023-07-08T05:34:59;5.15;;;4.07;;
12650;SDS011;6390;49.400;8.670;2023-07-08T05:37:25;4.38;;;3.90;;
12650;SDS011;6390;49.400;8.670;2023-07-08T05:39:54;4.28;;;3.67;;
12650;SDS011;6390;49.400;8.670;2023-07-08T05:42:21;4.80;;;3.90;;
12650;SDS011;6390;49.400;8.670;2023-07-08T05:44:48;4.45;;;3.72;;
12650;SDS011;6390;49.400;8.670;2023-07-08T05:47:16;5.70;;;3.90;;
12650;SDS011;6390;49.400;8.670;2023-07-08T05:49:42;4.20;;;3.75;;
12650;SDS011;6390;49.400;8.670;2023-07-08T05:52:08;4.18;;;3.63;;
12650;SDS011;6390;49.400;8.670;2023-07-08T05:54:39;4.55;;;3.80;;
12650;SDS011;6390;49.400;8.670;2023-07-08T05:57:06;4.97;;;4.10;;
12650;SDS011;6390;49.400;8.670;2023-07-08T05:59:34;3.70;;;3.40;;
12650;SDS011;6390;49.400;8.670;2023-07-08T06:02:01;4.05;;;3.65;;
12650;SDS011;6390;49.400;8.670;2023-07-08T06:04:31;5.00;;;3.70;;
12650;SDS011;6390;49.400;8.670;2023-07-08T06:06:57;6.20;;;3.97;;
12650;SDS011;6390;49.400;8.670;2023-07-08T06:09:23;5.75;;;3.90;;
12650;SDS011;6390;49.400;8.670;2023-07-08T06:11:49;5.28;;;4.20;;
12650;SDS011;6390;49.400;8.670;2023-07-08T06:14:16;4.90;;;4.10;;
12650;SDS011;6390;49.400;8.670;2023-07-08T06:16:42;5.15;;;4.07;;
12650;SDS011;6390;49.400;8.670;2023-07-08T06:19:08;4.00;;;3.60;;
12650;SDS011;6390;49.400;8.670;2023-07-08T06:21:34;4.13;;;3.72;;
12650;SDS011;6390;49.400;8.670;2023-07-08T06:24:00;5.05;;;4.00;;
12650;SDS011;6390;49.400;8.670;2023-07-08T06:26:27;4.13;;;3.72;;
12650;SDS011;6390;49.400;8.670;2023-07-08T06:28:53;4.85;;;4.00;;
12650;SDS011;6390;49.400;8.670;2023-07-08T06:31:19;4.18;;;3.75;;
12650;SDS011;6390;49.400;8.670;2023-07-08T06:33:45;5.15;;;3.72;;
12650;SDS011;6390;49.400;8.670;2023-07-08T06:36:11;6.63;;;4.28;;
12650;SDS011;6390;49.400;8.670;2023-07-08T06:38:37;4.97;;;4.18;;
12650;SDS011;6390;49.400;8.670;2023-07-08T06:41:03;3.92;;;3.53;;
12650;SDS011;6390;49.400;8.670;2023-07-08T06:43:29;4.35;;;3.60;;
12650;SDS011;6390;49.400;8.670;2023-07-08T06:45:55;4.30;;;3.67;;
12650;SDS011;6390;49.400;8.670;2023-07-08T06:48:21;4.22;;;3.72;;
12650;SDS011;6390;49.400;8.670;2023-07-08T06:50:49;4.88;;;3.75;;
12650;SDS011;6390;49.400;8.670;2023-07-08T06:53:15;4.13;;;3.70;;
12650;SDS011;6390;49.400;8.670;2023-07-08T06:55:43;4.05;;;3.40;;
12650;SDS011;6390;49.400;8.670;2023-07-08T06:58:10;3.65;;;3.35;;
12650;SDS011;6390;49.400;8.670;2023-07-08T07:00:37;4.38;;;3.83;;
12650;SDS011;6390;49.400;8.670;2023-07-08T07:03:06;4.57;;;3.72;;
12650;SDS011;6390;49.400;8.670;2023-07-08T07:05:32;4.15;;;3.30;;
12650;SDS011;6390;49.400;8.670;2023-07-08T07:07:58;5.60;;;3.63;;
12650;SDS011;6390;49.400;8.670;2023-07-08T07:10:24;4.57;;;3.40;;
12650;SDS011;6390;49.400;8.670;2023-07-08T07:12:50;3.63;;;3.25;;
12650;SDS011;6390;49.400;8.670;2023-07-08T07:15:16;5.38;;;3.72;;
12650;SDS011;6390;49.400;8.670;2023-07-08T07:17:42;3.40;;;3.10;;
12650;SDS011;6390;49.400;8.670;2023-07-08T07:20:09;4.55;;;3.60;;
12650;SDS011;6390;49.400;8.670;2023-07-08T07:22:35;5.75;;;3.88;;
12650;SDS011;6390;49.400;8.670;2023-07-08T07:25:01;4.13;;;3.55;;
12650;SDS011;6390;49.400;8.670;2023-07-08T07:27:28;3.90;;;3.05;;
12650;SDS011;6390;49.400;8.670;2023-07-08T07:29:54;4.07;;;3.25;;
12650;SDS011;6390;49.400;8.670;2023-07-08T07:32:22;3.38;;;2.85;;
12650;SDS011;6390;49.400;8.670;2023-07-08T07:34:49;3.65;;;2.95;;
12650;SDS011;6390;49.400;8.670;2023-07-08T07:37:16;3.22;;;2.92;;
12650;SDS011;6390;49.400;8.670;2023-07-08T07:39:45;3.22;;;2.67;;
12650;SDS011;6390;49.400;8.670;2023-07-08T07:42:12;3.38;;;2.80;;
12650;SDS011;6390;49.400;8.670;2023-07-08T07:44:40;3.00;;;2.42;;
12650;SDS011;6390;49.400;8.670;2023-07-08T07:47:07;3.83;;;2.35;;
12650;SDS011;6390;49.400;8.670;2023-07-08T07:49:34;3.67;;;2.55;;
12650;SDS011;6390;49.400;8.670;2023-07-08T07:52:00;2.97;;;2.15;;
12650;SDS011;6390;49.400;8.670;2023-07-08T07:54:27;7.57;;;2.70;;
12650;SDS011;6390;49.400;8.670;2023-07-08T07:56:53;4.32;;;2.50;;
12650;SDS011;6390;49.400;8.670;2023-07-08T07:59:19;2.58;;;2.38;;
12650;SDS011;6390;49.400;8.670;2023-07-08T08:01:46;4.35;;;2.30;;
12650;SDS011;6390;49.400;8.670;2023-07-08T08:04:12;3.33;;;2.30;;
12650;SDS011;6390;49.400;8.670;2023-07-08T08:06:38;4.65;;;2.30;;
12650;SDS011;6390;49.400;8.670;2023-07-08T08:09:05;2.83;;;2.45;;
12650;SDS011;6390;49.400;8.670;2023-07-08T08:11:32;3.47;;;2.72;;
12650;SDS011;6390;49.400;8.670;2023-07-08T08:13:59;2.92;;;2.33;;
12650;SDS011;6390;49.400;8.670;2023-07-08T08:16:25;3.80;;;2.50;;
12650;SDS011;6390;49.400;8.670;2023-07-08T08:18:52;4.72;;;2.47;;
12650;SDS011;6390;49.400;8.670;2023-07-08T08:21:18;4.03;;;2.75;;
12650;SDS011;6390;49.400;8.670;2023-07-08T08:23:44;3.00;;;2.63;;
12650;SDS011;6390;49.400;8.670;2023-07-08T08:26:10;3.38;;;2.22;;
12650;SDS011;6390;49.400;8.670;2023-07-08T08:28:36;5.07;;;2.35;;
12650;SDS011;6390;49.400;8.670;2023-07-08T08:31:02;3.05;;;2.70;;
12650;SDS011;6390;49.400;8.670;2023-07-08T08:33:28;2.58;;;2.38;;
12650;SDS011;6390;49.400;8.670;2023-07-08T08:35:54;4.00;;;2.30;;
12650;SDS011;6390;49.400;8.670;2023-07-08T08:38:20;2.88;;;2.30;;
12650;SDS011;6390;49.400;8.670;2023-07-08T08:40:46;4.10;;;2.53;;
12650;SDS011;6390;49.400;8.670;2023-07-08T08:43:17;3.13;;;2.30;;
12650;SDS011;6390;49.400;8.670;2023-07-08T08:48:32;3.20;;;2.50;;
12650;SDS011;6390;49.400;8.670;2023-07-08T08:51:40;2.50;;;2.10;;
12650;SDS011;6390;49.400;8.670;2023-07-08T08:54:07;3.35;;;2.30;;
12650;SDS011;6390;49.400;8.670;2023-07-08T08:57:25;2.50;;;2.30;;
12650;SDS011;6390;49.400;8.670;2023-07-08T08:59:42;2.25;;;2.05;;
12650;SDS011;6390;49.400;8.670;2023-07-08T09:05:06;2.08;;;1.77;;
12650;SDS011;6390;49.400;8.670;2023-07-08T09:08:22;1.98;;;1.77;;
12650;SDS011;6390;49.400;8.670;2023-07-08T09:10:42;2.47;;;2.15;;
12650;SDS011;6390;49.400;8.670;2023-07-08T09:13:15;1.90;;;1.70;;
12650;SDS011;6390;49.400;8.670;2023-07-08T09:15:52;2.35;;;1.80;;
12650;SDS011;6390;49.400;8.670;2023-07-08T09:18:36;3.35;;;2.15;;
12650;SDS011;6390;49.400;8.670;2023-07-08T09:21:29;2.08;;;1.85;;
12650;SDS011;6390;49.400;8.670;2023-07-08T09:24:16;2.25;;;2.05;;
12650;SDS011;6390;49.400;8.670;2023-07-08T09:26:56;3.20;;;2.03;;
12650;SDS011;6390;49.400;8.670;2023-07-08T09:29:25;2.45;;;2.25;;
12650;SDS011;6390;49.400;8.670;2023-07-08T09:31:51;4.47;;;2.00;;
12650;SDS011;6390;49.400;8.670;2023-07-08T09:34:21;3.78;;;2.25;;
12650;SDS011;6390;49.400;8.670;2023-07-08T09:36:49;2.45;;;2.22;;
12650;SDS011;6390;49.400;8.670;2023-07-08T09:39:17;2.70;;;2.00;;
12650;SDS011;6390;49.400;8.670;2023-07-08T09:41:46;2.88;;;2.20;;
12650;SDS011;6390;49.400;8.670;2023-07-08T09:46:41;3.47;;;2.10;;
12650;SDS011;6390;49.400;8.670;2023-07-08T09:49:09;2.67;;;2.47;;
12650;SDS011;6390;49.400;8.670;2023-07-08T09:51:42;3.25;;;2.17;;
12650;SDS011;6390;49.400;8.670;2023-07-08T09:54:08;3.45;;;2.50;;
12650;SDS011;6390;49.400;8.670;2023-07-08T09:56:35;3.15;;;2.30;;
12650;SDS011;6390;49.400;8.670;2023-07-08T09:59:03;2.90;;;2.47;;
12650;SDS011;6390;49.400;8.670;2023-07-08T10:01:29;4.47;;;2.28;;
12650;SDS011;6390;49.400;8.670;2023-07-08T10:03:59;2.10;;;1.92;;
12650;SDS011;6390;49.400;8.670;2023-07-08T10:06:26;2.67;;;2.33;;
12650;SDS011;6390;49.400;8.670;2023-07-08T10:09:00;3.20;;;2.60;;
12650;SDS011;6390;49.400;8.670;2023-07-08T10:11:37;3.33;;;2.90;;
12650;SDS011;6390;49.400;8.670;2023-07-08T10:14:12;2.90;;;2.20;;
12650;SDS011;6390;49.400;8.670;2023-07-08T10:16:59;2.45;;;2.25;;
12650;SDS011;6390;49.400;8.670;2023-07-08T10:19:25;2.47;;;1.73;;
12650;SDS011;6390;49.400;8.670;2023-07-08T10:24:46;2.55;;;2.20;;
12650;SDS011;6390;49.400;8.670;2023-07-08T10:39:22;3.45;;;1.90;;
12650;SDS011;6390;49.400;8.670;2023-07-08T10:45:13;2.85;;;2.08;;
12650;SDS011;6390;49.400;8.670;2023-07-08T10:47:49;2.67;;;2.42;;
12650;SDS011;6390;49.400;8.670;2023-07-08T10:50:30;2.63;;;2.30;;
12650;SDS011;6390;49.400;8.670;2023-07-08T10:53:24;2.40;;;2.13;;
12650;SDS011;6390;49.400;8.670;2023-07-08T10:59:19;2.05;;;1.85;;
12650;SDS011;6390;49.400;8.670;2023-07-08T11:02:09;4.40;;;1.83;;
12650;SDS011;6390;49.400;8.670;2023-07-08T11:07:56;2.85;;;2.10;;
12650;SDS011;6390;49.400;8.670;2023-07-08T11:10:44;3.10;;;1.95;;
12650;SDS011;6390;49.400;8.670;2023-07-08T11:13:20;2.17;;;1.90;;
12650;SDS011;6390;49.400;8.670;2023-07-08T11:15:56;2.03;;;1.90;;
12650;SDS011;6390;49.400;8.670;2023-07-08T11:18:47;2.42;;;2.00;;
12650;SDS011;6390;49.400;8.670;2023-07-08T11:21:20;2.58;;;2.17;;
12650;SDS011;6390;49.400;8.670;2023-07-08T11:26:28;3.72;;;2.50;;
12650;SDS011;6390;49.400;8.670;2023-07-08T11:29:14;2.30;;;2.10;;
12650;SDS011;6390;49.400;8.670;2023-07-08T11:31:48;2.50;;;2.08;;
12650;SDS011;6390;49.400;8.670;2023-07-08T11:34:15;2.40;;;2.20;;
12650;SDS011;6390;49.400;8.670;2023-07-08T11:36:43;3.00;;;2.17;;
12650;SDS011;6390;49.400;8.670;2023-07-08T11:42:31;2.10;;;1.90;;
12650;SDS011;6390;49.400;8.670;2023-07-08T11:45:08;4.78;;;2.33;;
12650;SDS011;6390;49.400;8.670;2023-07-08T11:47:49;4.55;;;2.15;;
12650;SDS011;6390;49.400;8.670;2023-07-08T11:50:30;2.95;;;2.60;;
12650;SDS011;6390;49.400;8.670;2023-07-08T11:53:02;2.60;;;2.40;;
12650;SDS011;6390;49.400;8.670;2023-07-08T11:55:55;2.40;;;2.10;;
12650;SDS011;6390;49.400;8.670;2023-07-08T11:58:25;2.42;;;2.22;;
12650;SDS011;6390;49.400;8.670;2023-07-08T12:01:19;2.80;;;2.42;;
12650;SDS011;6390;49.400;8.670;2023-07-08T12:04:00;2.85;;;2.22;;
12650;SDS011;6390;49.400;8.670;2023-07-08T12:06:46;3.05;;;2.40;;
12650;SDS011;6390;49.400;8.670;2023-07-08T12:09:27;2.30;;;2.10;;
12650;SDS011;6390;49.400;8.670;2023-07-08T12:12:01;4.05;;;2.40;;
12650;SDS011;6390;49.400;8.670;2023-07-08T12:14:35;2.60;;;2.40;;
12650;SDS011;6390;49.400;8.670;2023-07-08T12:17:01;3.60;;;2.15;;
12650;SDS011;6390;49.400;8.670;2023-07-08T12:19:29;2.53;;;2.30;;
12650;SDS011;6390;49.400;8.670;2023-07-08T12:21:57;3.63;;;2.65;;
12650;SDS011;6390;49.400;8.670;2023-07-08T12:24:23;3.40;;;2.20;;
12650;SDS011;6390;49.400;8.670;2023-07-08T12:26:52;3.80;;;2.10;;
12650;SDS011;6390;49.400;8.670;2023-07-08T12:29:18;3.30;;;2.15;;
12650;SDS011;6390;49.400;8.670;2023-07-08T12:31:44;3.10;;;2.55;;
12650;SDS011;6390;49.400;8.670;2023-07-08T12:34:14;2.58;;;2.38;;
12650;SDS011;6390;49.400;8.670;2023-07-08T12:36:42;2.42;;;2.22;;
12650;SDS011;6390;49.400;8.670;2023-07-08T12:39:11;2.90;;;2.33;;
12650;SDS011;6390;49.400;8.670;2023-07-08T12:41:40;2.58;;;2.10;;
12650;SDS011;6390;49.400;8.670;2023-07-08T12:44:08;2.70;;;2.45;;
12650;SDS011;6390;49.400;8.670;2023-07-08T12:46:46;2.40;;;2.20;;
12650;SDS011;6390;49.400;8.670;2023-07-08T12:49:13;3.15;;;2.30;;
12650;SDS011;6390;49.400;8.670;2023-07-08T12:51:42;2.63;;;2.13;;
12650;SDS011;6390;49.400;8.670;2023-07-08T12:54:10;3.40;;;2.40;;
12650;SDS011;6390;49.400;8.670;2023-07-08T12:56:37;2.55;;;2.30;;
12650;SDS011;6390;49.400;8.670;2023-07-08T12:59:05;2.97;;;2.22;;
12650;SDS011;6390;49.400;8.670;2023-07-08T13:01:33;3.17;;;2.53;;
12650;SDS011;6390;49.400;8.670;2023-07-08T13:04:01;2.42;;;2.10;;
12650;SDS011;6390;49.400;8.670;2023-07-08T13:06:31;3.25;;;2.38;;
12650;SDS011;6390;49.400;8.670;2023-07-08T13:09:16;3.70;;;2.03;;
12650;SDS011;6390;49.400;8.670;2023-07-08T13:12:12;4.35;;;2.25;;
12650;SDS011;6390;49.400;8.670;2023-07-08T13:14:47;2.80;;;2.40;;
12650;SDS011;6390;49.400;8.670;2023-07-08T13:17:14;2.10;;;1.95;;
12650;SDS011;6390;49.400;8.670;2023-07-08T13:19:41;2.83;;;2.40;;
12650;SDS011;6390;49.400;8.670;2023-07-08T13:22:16;2.58;;;2.10;;
12650;SDS011;6390;49.400;8.670;2023-07-08T13:24:43;2.83;;;2.38;;
12650;SDS011;6390;49.400;8.670;2023-07-08T13:27:16;3.33;;;2.08;;
12650;SDS011;6390;49.400;8.670;2023-07-08T13:29:48;2.97;;;2.33;;
12650;SDS011;6390;49.400;8.670;2023-07-08T13:32:18;3.00;;;2.10;;
12650;SDS011;6390;49.400;8.670;2023-07-08T13:34:44;2.50;;;2.30;;
12650;SDS011;6390;49.400;8.670;2023-07-08T13:37:15;2.92;;;2.00;;
12650;SDS011;6390;49.400;8.670;2023-07-08T13:39:46;2.85;;;2.20;;
12650;SDS011;6390;49.400;8.670;2023-07-08T13:42:12;2.75;;;2.28;;
12650;SDS011;6390;49.400;8.670;2023-07-08T13:44:44;2.50;;;2.30;;
12650;SDS011;6390;49.400;8.670;2023-07-08T13:50:13;2.20;;;2.00;;
12650;SDS011;6390;49.400;8.670;2023-07-08T13:52:47;2.72;;;2.38;;
12650;SDS011;6390;49.400;8.670;2023-07-08T13:55:21;3.00;;;2.00;;
12650;SDS011;6390;49.400;8.670;2023-07-08T13:57:55;2.67;;;2.25;;
12650;SDS011;6390;49.400;8.670;2023-07-08T14:00:25;3.53;;;2.13;;
12650;SDS011;6390;49.400;8.670;2023-07-08T14:02:51;4.55;;;2.10;;
12650;SDS011;6390;49.400;8.670;2023-07-08T14:05:17;2.38;;;2.17;;
12650;SDS011;6390;49.400;8.670;2023-07-08T14:07:46;2.03;;;1.83;;
12650;SDS011;6390;49.400;8.670;2023-07-08T14:10:13;2.10;;;1.90;;
12650;SDS011;6390;49.400;8.670;2023-07-08T14:12:40;4.15;;;2.13;;
12650;SDS011;6390;49.400;8.670;2023-07-08T14:15:06;3.63;;;2.22;;
12650;SDS011;6390;49.400;8.670;2023-07-08T14:17:33;2.95;;;2.10;;
12650;SDS011;6390;49.400;8.670;2023-07-08T14:19:59;3.33;;;2.42;;
12650;SDS011;6390;49.400;8.670;2023-07-08T14:22:26;2.72;;;2.30;;
12650;SDS011;6390;49.400;8.670;2023-07-08T14:24:55;2.30;;;2.10;;
12650;SDS011;6390;49.400;8.670;2023-07-08T14:27:26;2.30;;;2.10;;
12650;SDS011;6390;49.400;8.670;2023-07-08T14:29:52;3.13;;;2.10;;
12650;SDS011;6390;49.400;8.670;2023-07-08T14:32:19;2.58;;;1.95;;
12650;SDS011;6390;49.400;8.670;2023-07-08T14:34:56;3.25;;;2.13;;
12650;SDS011;6390;49.400;8.670;2023-07-08T14:37:42;2.15;;;1.92;;
12650;SDS011;6390;49.400;8.670;2023-07-08T14:40:18;2.83;;;2.00;;
12650;SDS011;6390;49.400;8.670;2023-07-08T14:42:54;2.88;;;2.20;;
12650;SDS011;6390;49.400;8.670;2023-07-08T14:45:25;2.50;;;1.77;;
12650;SDS011;6390;49.400;8.670;2023-07-08T14:47:52;2.58;;;2.15;;
12650;SDS011;6390;49.400;8.670;2023-07-08T14:50:19;2.60;;;2.20;;
12650;SDS011;6390;49.400;8.670;2023-07-08T14:52:45;2.47;;;2.10;;
12650;SDS011;6390;49.400;8.670;2023-07-08T14:55:11;3.78;;;1.83;;
12650;SDS011;6390;49.400;8.670;2023-07-08T14:57:44;2.40;;;2.20;;
12650;SDS011;6390;49.400;8.670;2023-07-08T15:00:13;2.88;;;2.22;;
12650;SDS011;6390;49.400;8.670;2023-07-08T15:02:42;3.45;;;2.05;;
12650;SDS011;6390;49.400;8.670;2023-07-08T15:05:14;2.30;;;2.00;;
12650;SDS011;6390;49.400;8.670;2023-07-08T15:07:49;2.17;;;1.98;;
12650;SDS011;6390;49.400;8.670;2023-07-08T15:10:17;2.47;;;1.98;;
12650;SDS011;6390;49.400;8.670;2023-07-08T15:12:45;3.95;;;2.10;;
12650;SDS011;6390;49.400;8.670;2023-07-08T15:15:17;2.65;;;2.08;;
12650;SDS011;6390;49.400;8.670;2023-07-08T15:17:52;2.05;;;1.85;;
12650;SDS011;6390;49.400;8.670;2023-07-08T15:20:18;2.55;;;2.00;;
12650;SDS011;6390;49.400;8.670;2023-07-08T15:22:46;3.35;;;1.80;;
12650;SDS011;6390;49.400;8.670;2023-07-08T15:25:13;2.17;;;1.67;;
12650;SDS011;6390;49.400;8.670;2023-07-08T15:27:40;1.90;;;1.80;;
12650;SDS011;6390;49.400;8.670;2023-07-08T15:30:22;3.70;;;2.00;;
12650;SDS011;6390;49.400;8.670;2023-07-08T15:32:52;2.30;;;1.90;;
12650;SDS011;6390;49.400;8.670;2023-07-08T15:35:20;3.90;;;1.80;;
12650;SDS011;6390;49.400;8.670;2023-07-08T15:37:57;1.55;;;1.45;;
12650;SDS011;6390;49.400;8.670;2023-07-08T15:40:24;1.60;;;1.50;;
12650;SDS011;6390;49.400;8.670;2023-07-08T15:42:51;2.10;;;1.63;;
12650;SDS011;6390;49.400;8.670;2023-07-08T15:45:22;3.70;;;1.73;;
12650;SDS011;6390;49.400;8.670;2023-07-08T15:47:54;1.70;;;1.50;;
12650;SDS011;6390;49.400;8.670;2023-07-08T15:50:21;4.30;;;1.80;;
12650;SDS011;6390;49.400;8.670;2023-07-08T15:52:50;1.55;;;1.40;;
12650;SDS011;6390;49.400;8.670;2023-07-08T15:55:24;2.45;;;1.67;;
12650;SDS011;6390;49.400;8.670;2023-07-08T15:58:02;2.63;;;1.50;;
12650;SDS011;6390;49.400;8.670;2023-07-08T16:00:32;2.83;;;1.60;;
12650;SDS011;6390;49.400;8.670;2023-07-08T16:03:09;1.65;;;1.55;;
12650;SDS011;6390;49.400;8.670;2023-07-08T16:05:50;4.05;;;1.77;;